createdAt,value
2018-08-22T00:01:57.497Z,17.48
2018-08-22T00:04:59.751Z,17.39
2018-08-22T00:08:02.009Z,17.35
2018-08-22T00:11:04.277Z,17.24
2018-08-22T00:14:06.535Z,17.09
2018-08-22T00:17:13.069Z,16.91
2018-08-22T00:20:15.388Z,16.76
2018-08-22T00:23:17.596Z,16.72
2018-08-22T00:26:19.797Z,16.76
2018-08-22T00:29:22.060Z,16.73
2018-08-22T00:32:24.213Z,16.62
2018-08-22T00:35:26.397Z,16.49
2018-08-22T00:38:28.556Z,16.39
2018-08-22T00:41:32.001Z,16.34
2018-08-22T00:44:34.241Z,16.32
2018-08-22T00:47:36.508Z,16.33
2018-08-22T00:50:38.677Z,16.27
2018-08-22T00:53:40.827Z,16.19
2018-08-22T00:56:42.956Z,16.19
2018-08-22T00:59:45.160Z,16.17
2018-08-22T01:02:47.321Z,16.16
2018-08-22T01:05:49.611Z,16.18
2018-08-22T01:08:51.796Z,16.20
2018-08-22T01:11:54.042Z,16.18
2018-08-22T01:14:56.254Z,16.13
2018-08-22T01:17:58.428Z,16.08
2018-08-22T01:21:00.688Z,16.03
2018-08-22T01:24:02.866Z,15.94
2018-08-22T01:27:05.048Z,15.86
2018-08-22T01:30:07.395Z,15.81
2018-08-22T01:33:09.597Z,15.76
2018-08-22T01:36:11.855Z,15.66
2018-08-22T01:39:14.140Z,15.58
2018-08-22T01:42:16.861Z,15.52
2018-08-22T01:45:19.084Z,15.43
2018-08-22T01:48:21.620Z,15.40
2018-08-22T01:51:23.860Z,15.37
2018-08-22T01:54:26.217Z,15.38
2018-08-22T01:57:28.497Z,15.40
2018-08-22T02:00:30.712Z,15.45
2018-08-22T02:03:32.927Z,15.47
2018-08-22T02:06:35.193Z,15.51
2018-08-22T02:09:37.429Z,15.50
2018-08-22T02:12:39.597Z,15.51
2018-08-22T02:15:41.834Z,15.51
2018-08-22T02:18:44.195Z,15.44
2018-08-22T02:21:47.445Z,15.40
2018-08-22T02:24:49.635Z,15.33
2018-08-22T02:27:51.934Z,15.29
2018-08-22T02:30:54.107Z,15.27
2018-08-22T02:33:56.476Z,15.21
2018-08-22T02:36:58.662Z,15.19
2018-08-22T02:40:00.785Z,15.18
2018-08-22T02:43:03.041Z,15.17
2018-08-22T02:46:05.517Z,15.16
2018-08-22T02:49:12.305Z,15.19
2018-08-22T02:52:15.512Z,15.19
2018-08-22T02:55:17.652Z,15.19
2018-08-22T02:58:19.832Z,15.17
2018-08-22T03:01:22.049Z,15.17
2018-08-22T03:04:24.239Z,15.14
2018-08-22T03:07:26.611Z,15.11
2018-08-22T03:10:28.879Z,15.08
2018-08-22T03:13:31.116Z,15.07
2018-08-22T03:16:33.330Z,15.07
2018-08-22T03:19:35.622Z,15.12
2018-08-22T03:22:37.848Z,15.26
2018-08-22T03:25:40.182Z,15.44
2018-08-22T03:28:42.388Z,15.58
2018-08-22T03:31:44.621Z,15.65
2018-08-22T03:34:46.806Z,15.74
2018-08-22T03:37:49.046Z,15.81
2018-08-22T03:40:51.253Z,15.87
2018-08-22T03:43:53.620Z,15.88
2018-08-22T03:46:55.936Z,15.66
2018-08-22T03:49:59.370Z,15.29
2018-08-22T03:53:01.653Z,15.25
2018-08-22T03:56:03.837Z,15.15
2018-08-22T03:59:06.183Z,15.12
2018-08-22T04:02:08.454Z,15.11
2018-08-22T04:05:10.645Z,15.08
2018-08-22T04:08:12.954Z,15.02
2018-08-22T04:11:15.204Z,15.01
2018-08-22T04:14:17.524Z,15.00
2018-08-22T04:17:19.909Z,14.99
2018-08-22T04:20:22.142Z,15.05
2018-08-22T04:23:24.529Z,15.11
2018-08-22T04:26:26.858Z,15.16
2018-08-22T04:29:29.142Z,15.20
2018-08-22T04:32:31.539Z,15.23
2018-08-22T04:35:33.793Z,15.28
2018-08-22T04:38:36.052Z,15.38
2018-08-22T04:41:38.397Z,15.47
2018-08-22T04:44:40.823Z,15.54
2018-08-22T04:47:43.117Z,15.58
2018-08-22T04:50:45.398Z,15.63
2018-08-22T04:53:47.668Z,15.70
2018-08-22T04:56:49.857Z,15.73
2018-08-22T04:59:52.085Z,15.82
2018-08-22T05:02:54.260Z,15.92
2018-08-22T05:05:56.423Z,16.11
2018-08-22T05:08:58.691Z,16.30
2018-08-22T05:12:00.972Z,16.60
2018-08-22T05:15:03.291Z,17.22
2018-08-22T05:18:05.733Z,17.80
2018-08-22T05:21:08.050Z,18.28
2018-08-22T05:24:10.236Z,18.80
2018-08-22T05:27:12.491Z,20.05
2018-08-22T05:30:14.721Z,21.19
2018-08-22T05:33:16.910Z,19.64
2018-08-22T05:36:19.105Z,18.87
2018-08-22T05:39:21.349Z,20.30
2018-08-22T05:42:23.532Z,21.11
2018-08-22T05:45:25.766Z,21.67
2018-08-22T05:48:28.055Z,22.52
2018-08-22T05:51:30.312Z,23.19
2018-08-22T05:54:32.541Z,23.38
2018-08-22T05:57:34.790Z,23.72
2018-08-22T06:00:36.995Z,23.99
2018-08-22T06:03:39.192Z,24.45
2018-08-22T06:06:41.421Z,25.74
2018-08-22T06:09:43.658Z,26.71
2018-08-22T06:12:45.759Z,27.24
2018-08-22T06:15:48.035Z,27.86
2018-08-22T06:18:50.198Z,28.07
2018-08-22T06:21:52.402Z,27.97
2018-08-22T06:24:54.617Z,27.79
2018-08-22T06:27:56.873Z,28.21
2018-08-22T06:30:59.156Z,28.04
2018-08-22T06:34:01.352Z,27.72
2018-08-22T06:37:03.708Z,28.16
2018-08-22T06:40:06.206Z,28.54
2018-08-22T06:43:08.383Z,29.10
2018-08-22T06:46:10.575Z,28.58
2018-08-22T06:49:12.840Z,28.18
2018-08-22T06:52:15.122Z,28.98
2018-08-22T06:55:17.412Z,27.81
2018-08-22T06:58:19.630Z,26.80
2018-08-22T07:01:21.928Z,28.57
2018-08-22T07:04:24.116Z,29.00
2018-08-22T07:07:26.352Z,29.66
2018-08-22T07:10:28.591Z,28.94
2018-08-22T07:13:30.797Z,30.67
2018-08-22T07:16:33.018Z,29.72
2018-08-22T07:19:35.380Z,29.66
2018-08-22T07:22:37.529Z,29.64
2018-08-22T07:25:39.688Z,30.24
2018-08-22T07:28:41.849Z,30.09
2018-08-22T07:31:44.120Z,29.61
2018-08-22T07:34:46.275Z,29.30
2018-08-22T07:37:48.574Z,29.17
2018-08-22T07:40:50.865Z,28.74
2018-08-22T07:43:53.233Z,27.94
2018-08-22T07:46:55.418Z,27.44
2018-08-22T07:51:01.021Z,27.48
2018-08-22T07:54:03.257Z,26.76
2018-08-22T07:57:05.552Z,27.05
2018-08-22T08:00:07.845Z,27.17
2018-08-22T08:03:09.993Z,27.41
2018-08-22T08:06:12.275Z,26.37
2018-08-22T08:09:15.678Z,25.90
2018-08-22T08:12:19.522Z,26.27
2018-08-22T08:15:21.722Z,26.18
2018-08-22T08:18:23.942Z,26.19
2018-08-22T08:21:26.266Z,26.33
2018-08-22T08:24:28.518Z,26.11
2018-08-22T08:27:30.847Z,26.25
2018-08-22T08:30:33.134Z,26.50
2018-08-22T08:33:35.367Z,26.19
2018-08-22T08:36:37.544Z,26.73
2018-08-22T08:39:39.871Z,26.67
2018-08-22T08:42:42.125Z,26.75
2018-08-22T08:45:44.300Z,26.43
2018-08-22T08:48:47.410Z,26.76
2018-08-22T08:51:55.784Z,27.59
2018-08-22T08:54:58.301Z,27.93
2018-08-22T08:58:00.575Z,27.74
2018-08-22T09:01:02.819Z,27.21
2018-08-22T09:04:05.091Z,27.17
2018-08-22T09:07:07.264Z,27.42
2018-08-22T09:10:09.474Z,28.13
2018-08-22T09:13:13.202Z,28.03
2018-08-22T09:16:15.869Z,28.09
2018-08-22T09:19:18.099Z,27.89
2018-08-22T09:22:20.399Z,28.44
2018-08-22T09:25:22.616Z,28.98
2018-08-22T09:28:25.843Z,28.76
2018-08-22T09:31:29.027Z,29.13
2018-08-22T09:34:31.289Z,28.74
2018-08-22T09:37:33.536Z,28.16
2018-08-22T09:40:35.747Z,28.51
2018-08-22T09:43:38.029Z,29.02
2018-08-22T09:46:40.496Z,29.25
2018-08-22T09:49:42.685Z,29.36
2018-08-22T09:52:44.993Z,29.22
2018-08-22T09:55:47.256Z,29.59
2018-08-22T09:58:49.491Z,30.20
2018-08-22T10:01:51.823Z,30.02
2018-08-22T10:04:54.355Z,29.83
2018-08-22T10:07:56.911Z,29.90
2018-08-22T10:10:59.177Z,30.05
2018-08-22T10:14:01.465Z,30.13
2018-08-22T10:17:03.868Z,30.35
2018-08-22T10:20:06.156Z,30.13
2018-08-22T10:23:08.360Z,29.91
2018-08-22T10:26:10.707Z,29.94
2018-08-22T10:29:12.928Z,29.87
2018-08-22T10:32:15.168Z,30.04
2018-08-22T10:35:17.481Z,29.98
2018-08-22T10:38:19.706Z,30.53
2018-08-22T10:41:22.030Z,30.69
2018-08-22T10:44:24.261Z,31.23
2018-08-22T10:47:26.467Z,30.79
2018-08-22T10:50:28.895Z,30.63
2018-08-22T10:53:31.198Z,30.60
2018-08-22T10:56:33.501Z,30.85
2018-08-22T10:59:35.756Z,31.58
2018-08-22T11:02:38.117Z,32.24
2018-08-22T11:05:40.385Z,32.57
2018-08-22T11:08:42.679Z,31.76
2018-08-22T11:11:45.037Z,31.83
2018-08-22T11:14:47.538Z,31.57
2018-08-22T11:17:49.867Z,31.99
2018-08-22T11:20:52.295Z,32.23
2018-08-22T11:24:05.982Z,32.72
2018-08-22T11:27:19.660Z,32.26
2018-08-22T11:30:34.450Z,33.20
2018-08-22T11:33:48.338Z,33.34
2018-08-22T11:36:57.372Z,33.71
2018-08-22T11:39:59.540Z,33.94
2018-08-22T11:43:01.884Z,34.20
2018-08-22T11:46:04.117Z,34.01
2018-08-22T11:49:06.349Z,33.62
2018-08-22T11:52:08.532Z,32.89
2018-08-22T11:55:10.787Z,33.47
2018-08-22T11:58:13.136Z,34.26
2018-08-22T12:01:15.395Z,34.19
2018-08-22T12:04:18.006Z,33.84
2018-08-22T12:07:20.247Z,33.49
2018-08-22T12:10:27.080Z,33.22
2018-08-22T12:13:29.370Z,32.96
2018-08-22T12:16:31.647Z,32.52
2018-08-22T12:19:33.932Z,32.13
2018-08-22T12:22:36.172Z,31.70
2018-08-22T12:25:38.371Z,32.32
2018-08-22T12:28:40.677Z,32.52
2018-08-22T12:31:42.990Z,32.07
2018-08-22T12:34:45.299Z,31.81
2018-08-22T12:37:47.663Z,32.24
2018-08-22T12:40:49.891Z,32.30
2018-08-22T12:43:52.193Z,33.11
2018-08-22T12:46:54.424Z,33.68
2018-08-22T12:49:56.653Z,33.39
2018-08-22T12:52:58.892Z,32.72
2018-08-22T12:56:01.236Z,32.88
2018-08-22T12:59:04.465Z,33.42
2018-08-22T13:02:06.891Z,33.27
2018-08-22T13:05:09.261Z,32.85
2018-08-22T13:08:11.543Z,33.07
2018-08-22T13:11:13.839Z,32.78
2018-08-22T13:14:16.047Z,33.82
2018-08-22T13:17:18.277Z,34.47
2018-08-22T13:20:20.667Z,34.44
2018-08-22T13:23:22.954Z,33.97
2018-08-22T13:26:25.152Z,33.83
2018-08-22T13:29:27.326Z,33.18
2018-08-22T13:32:29.924Z,33.38
2018-08-22T13:35:32.182Z,33.14
2018-08-22T13:38:34.459Z,32.89
2018-08-22T13:41:36.664Z,32.92
2018-08-22T13:44:38.972Z,33.35
2018-08-22T13:47:41.209Z,33.78
2018-08-22T13:50:43.512Z,34.51
2018-08-22T13:53:45.789Z,35.55
2018-08-22T13:56:48.006Z,35.93
2018-08-22T13:59:50.251Z,35.91
2018-08-22T14:02:52.520Z,36.10
2018-08-22T14:05:54.755Z,34.43
2018-08-22T14:08:57.120Z,32.86
2018-08-22T14:11:59.497Z,32.28
2018-08-22T14:15:01.893Z,32.19
2018-08-22T14:18:04.231Z,32.64
2018-08-22T14:21:06.632Z,32.81
2018-08-22T14:24:08.950Z,33.55
2018-08-22T14:27:11.107Z,35.10
2018-08-22T14:30:13.286Z,34.88
2018-08-22T14:33:15.464Z,35.00
2018-08-22T14:36:17.722Z,35.47
2018-08-22T14:39:20.099Z,35.75
2018-08-22T14:42:22.347Z,35.58
2018-08-22T14:45:24.735Z,35.73
2018-08-22T14:48:26.990Z,34.88
2018-08-22T14:51:29.466Z,33.37
2018-08-22T14:54:31.718Z,33.16
2018-08-22T14:57:34.170Z,33.38
2018-08-22T15:00:36.439Z,32.76
2018-08-22T15:03:38.911Z,32.54
2018-08-22T15:06:41.177Z,33.13
2018-08-22T15:09:43.393Z,32.58
2018-08-22T15:12:46.202Z,33.22
2018-08-22T15:15:49.909Z,34.49
2018-08-22T15:18:52.489Z,34.40
2018-08-22T15:21:54.828Z,34.42
2018-08-22T15:24:57.292Z,34.07
2018-08-22T15:27:59.660Z,34.37
2018-08-22T15:31:02.006Z,34.47
2018-08-22T15:34:04.421Z,34.41
2018-08-22T15:37:08.940Z,34.07
2018-08-22T15:40:11.322Z,33.97
2018-08-22T15:43:13.738Z,33.89
2018-08-22T15:46:16.070Z,34.01
2018-08-22T15:49:18.372Z,34.05
2018-08-22T15:52:21.909Z,34.05
2018-08-22T15:55:24.219Z,32.90
2018-08-22T15:58:26.456Z,32.20
2018-08-22T16:01:28.729Z,31.83
2018-08-22T16:04:43.439Z,31.87
2018-08-22T16:07:45.967Z,32.33
2018-08-22T16:10:48.450Z,33.40
2018-08-22T16:13:50.686Z,34.27
2018-08-22T16:16:52.980Z,34.36
2018-08-22T16:19:55.297Z,34.83
2018-08-22T16:22:57.567Z,34.09
2018-08-22T16:26:00.939Z,34.34
2018-08-22T16:29:03.199Z,34.11
2018-08-22T16:32:05.455Z,33.32
2018-08-22T16:35:08.296Z,32.37
2018-08-22T16:38:12.079Z,31.96
2018-08-22T16:41:15.326Z,32.14
2018-08-22T16:44:17.622Z,33.11
2018-08-22T16:47:24.866Z,33.73
2018-08-22T16:50:27.453Z,33.99
2018-08-22T16:53:29.713Z,34.66
2018-08-22T16:56:33.130Z,34.65
2018-08-22T16:59:35.409Z,34.57
2018-08-22T17:02:37.619Z,34.33
2018-08-22T17:05:39.892Z,34.61
2018-08-22T17:08:42.117Z,34.13
2018-08-22T17:11:44.402Z,34.00
2018-08-22T17:14:46.982Z,33.74
2018-08-22T17:17:49.252Z,33.05
2018-08-22T17:20:51.598Z,32.91
2018-08-22T17:23:53.761Z,32.82
2018-08-22T17:26:55.994Z,32.76
2018-08-22T17:29:58.215Z,32.70
2018-08-22T17:33:00.498Z,32.78
2018-08-22T17:36:02.844Z,32.81
2018-08-22T17:39:06.629Z,32.65
2018-08-22T17:42:08.903Z,32.44
2018-08-22T17:45:32.265Z,32.35
2018-08-22T17:48:34.780Z,32.25
2018-08-22T17:52:10.631Z,31.98
2018-08-22T17:55:12.963Z,31.48
2018-08-22T17:58:15.213Z,30.96
2018-08-22T18:01:17.462Z,30.63
2018-08-22T18:04:19.790Z,30.32
2018-08-22T18:07:22.194Z,30.01
2018-08-22T18:10:24.489Z,29.59
2018-08-22T18:13:27.041Z,29.03
2018-08-22T18:16:29.394Z,28.55
2018-08-22T18:19:31.917Z,28.09
2018-08-22T18:22:35.671Z,27.70
2018-08-22T18:25:45.120Z,27.35
2018-08-22T18:28:47.445Z,26.99
2018-08-22T18:31:50.175Z,26.63
2018-08-22T18:35:07.138Z,26.32
2018-08-22T18:38:09.422Z,26.00
2018-08-22T18:41:11.674Z,25.72
2018-08-22T18:44:15.510Z,25.51
2018-08-22T18:47:17.883Z,25.38
2018-08-22T18:50:20.213Z,25.14
2018-08-22T18:53:22.516Z,24.99
2018-08-22T18:56:24.727Z,24.77
2018-08-22T18:59:26.962Z,25.03
2018-08-22T19:02:29.132Z,25.33
2018-08-22T19:05:33.726Z,25.07
2018-08-22T19:08:37.095Z,24.83
2018-08-22T19:11:39.388Z,24.74
2018-08-22T19:14:46.167Z,24.62
2018-08-22T19:17:48.484Z,24.57
2018-08-22T19:20:55.359Z,24.51
2018-08-22T19:24:03.990Z,24.42
2018-08-22T19:27:06.198Z,24.25
2018-08-22T19:30:08.486Z,24.09
2018-08-22T19:33:14.796Z,23.87
2018-08-22T19:36:17.050Z,23.70
2018-08-22T19:39:19.353Z,23.48
2018-08-22T19:42:21.717Z,23.19
2018-08-22T19:45:23.935Z,23.20
2018-08-22T19:48:26.303Z,23.07
2018-08-22T19:51:28.696Z,23.02
2018-08-22T19:54:31.141Z,23.03
2018-08-22T19:57:34.726Z,23.11
2018-08-22T20:00:37.173Z,23.09
2018-08-22T20:03:39.501Z,23.04
2018-08-22T20:06:41.749Z,22.89
2018-08-22T20:09:44.024Z,22.68
2018-08-22T20:12:48.545Z,22.51
2018-08-22T20:15:51.813Z,22.32
2018-08-22T20:18:55.193Z,22.19
2018-08-22T20:21:57.372Z,22.06
2018-08-22T20:25:00.969Z,21.89
2018-08-22T20:28:03.244Z,21.91
2018-08-22T20:31:10.092Z,21.97
2018-08-22T20:34:13.770Z,22.01
2018-08-22T20:37:16.088Z,22.00
2018-08-22T20:40:18.881Z,22.14
2018-08-22T20:43:25.732Z,22.12
2018-08-22T20:46:27.996Z,22.14
2018-08-22T20:49:30.359Z,22.03
2018-08-22T20:52:32.622Z,21.93
2018-08-22T20:55:35.979Z,21.89
2018-08-22T20:58:40.946Z,21.98
2018-08-22T21:01:44.981Z,21.91
2018-08-22T21:04:47.617Z,21.78
2018-08-22T21:07:49.902Z,21.66
2018-08-22T21:10:53.182Z,21.47
2018-08-22T21:13:55.518Z,21.28
2018-08-22T21:16:57.673Z,21.09
2018-08-22T21:20:02.813Z,21.04
2018-08-22T21:23:05.128Z,21.02
2018-08-22T21:26:07.443Z,21.07
2018-08-22T21:29:09.907Z,21.23
2018-08-22T21:32:12.153Z,21.36
2018-08-22T21:35:20.151Z,21.39
2018-08-22T21:38:22.436Z,21.49
2018-08-22T21:41:24.804Z,21.36
2018-08-22T21:44:27.033Z,21.27
2018-08-22T21:47:29.539Z,21.26
2018-08-22T21:50:31.814Z,21.33
2018-08-22T21:53:34.143Z,21.35
2018-08-22T21:56:37.934Z,21.58
2018-08-22T21:59:40.242Z,21.52
2018-08-22T22:02:43.411Z,21.53
2018-08-22T22:06:08.520Z,21.35
2018-08-22T22:09:10.853Z,21.26
2018-08-22T22:12:18.855Z,21.13
2018-08-22T22:15:26.792Z,21.02
2018-08-22T22:18:30.751Z,20.97
2018-08-22T22:21:34.178Z,21.13
2018-08-22T22:24:50.425Z,21.22
2018-08-22T22:27:52.751Z,21.13
2018-08-22T22:30:54.910Z,21.15
2018-08-22T22:33:59.985Z,21.11
2018-08-22T22:37:02.242Z,21.02
2018-08-22T22:40:04.926Z,20.98
2018-08-22T22:43:09.800Z,20.96
2018-08-22T22:46:11.970Z,20.93
2018-08-22T22:49:14.199Z,20.95
2018-08-22T22:52:25.855Z,20.80
2018-08-22T22:55:28.060Z,20.68
2018-08-22T22:58:30.924Z,20.57
2018-08-22T23:01:33.163Z,20.44
2018-08-22T23:04:43.882Z,20.29
2018-08-22T23:07:46.041Z,20.29
2018-08-22T23:10:48.180Z,20.20
2018-08-22T23:13:50.393Z,20.21
2018-08-22T23:16:52.681Z,20.33
2018-08-22T23:20:13.969Z,20.21
2018-08-22T23:23:31.550Z,20.34
2018-08-22T23:26:33.875Z,20.18
2018-08-22T23:29:36.153Z,20.00
2018-08-22T23:32:38.596Z,20.11
2018-08-22T23:35:40.946Z,20.02
2018-08-22T23:38:43.185Z,19.92
2018-08-22T23:41:45.430Z,19.95
2018-08-22T23:44:48.333Z,19.97
2018-08-22T23:47:50.626Z,19.87
2018-08-22T23:50:58.950Z,19.75
2018-08-22T23:54:01.193Z,19.70
2018-08-22T23:57:04.569Z,19.61
